»·PEaware :: AAL1238 KDFW-KSFO

AAL1238 :: KDFW-KSFO

FLIGHT INFORMATION

Flight Status: Arrived
Operator:
American Airlines
More flights by this operator :: More flights under this callsign
Pilot: Ben Farney Jr (2808)
Aircraft: BOEING 737-800
(B738)
More flights by this aircraft type
Origin: KDFW Dallas-Ft Worth Intl
United States
Destination: KSFO San Francisco Intl
United States
More flights between these airports :: More routes between these airports
Route: LOWGN6 ADM J52 CRUSR J6 PNH J58 OAL YOSEM2
File this flight plan on PilotEdge
Remarks:
Altitude:
(Current/Filed)
38,000ft
Speed:
(Current/Filed)
460kts
Departed: 24-Apr-15 11:33 AM
Arrived: 24-Apr-15 03:01 PM
Distance/Time
Traveled:
1270nm/3:28
Distance/Time
To Go:
Arrived

Flight Plot

Page will automatically refresh every two minutes.


Map Options




Map Legend


Flown Route
Filed Route
Departure Airport
Arrival Airport
Navaid (VOR, NDB)
Fix

Horizontal Profiles

Position Reports

Time Latitude Longitude Heading Altitude Ground
Speed
24-Apr-15 11:21 32.904701 -97.034871 272 614ft 0kts
24-Apr-15 11:22 32.904701 -97.034871 272 614ft 0kts
24-Apr-15 11:23 32.904693 -97.034602 272 614ft 0kts
24-Apr-15 11:24 32.904638 -97.033967 307 615ft 0kts
24-Apr-15 11:25 32.904453 -97.033885 359 614ft 0kts
24-Apr-15 11:26 32.904647 -97.033688 73 614ft 7kts
24-Apr-15 11:27 32.908539 -97.033027 0 614ft 16kts
24-Apr-15 11:28 32.911633 -97.032655 359 614ft 9kts
24-Apr-15 11:29 32.915299 -97.032620 16 614ft 8kts
24-Apr-15 11:30 32.914489 -97.029826 181 614ft 21kts
24-Apr-15 11:31 32.878520 -97.035004 216 1590ft 186kts
24-Apr-15 11:32 32.892810 -97.092653 339 3289ft 267kts
24-Apr-15 11:33 32.968062 -97.075865 21 6124ft 293kts
24-Apr-15 11:34 33.046682 -97.039403 20 8970ft 312kts
24-Apr-15 11:35 33.132783 -97.016338 350 11269ft 335kts
24-Apr-15 11:36 33.220674 -97.068705 319 12396ft 380kts
24-Apr-15 11:37 33.310484 -97.140136 319 14761ft 392kts
24-Apr-15 11:38 33.403128 -97.212597 319 17011ft 402kts
24-Apr-15 11:39 33.516562 -97.243978 356 18946ft 450kts
24-Apr-15 11:40 33.643621 -97.229757 358 20596ft 465kts
24-Apr-15 11:41 33.774708 -97.215310 358 22062ft 478kts
24-Apr-15 11:42 33.909118 -97.200858 358 23347ft 489kts
24-Apr-15 11:43 34.046448 -97.186066 358 24502ft 499kts
24-Apr-15 11:44 34.185225 -97.182457 335 25505ft 486kts
24-Apr-15 11:45 34.284727 -97.276329 300 26503ft 450kts
24-Apr-15 11:46 34.364371 -97.394523 299 27439ft 455kts
24-Apr-15 11:47 34.444499 -97.513842 298 28601ft 454kts
24-Apr-15 11:48 34.524077 -97.632196 297 29852ft 450kts
24-Apr-15 11:49 34.602131 -97.748964 296 31324ft 441kts
24-Apr-15 11:50 34.679226 -97.864397 295 32627ft 435kts
24-Apr-15 11:51 34.754548 -97.978006 294 33865ft 429kts
24-Apr-15 11:52 34.828718 -98.090344 293 35289ft 416kts
24-Apr-15 11:53 34.901742 -98.201217 293 35797ft 420kts
24-Apr-15 11:54 34.973896 -98.311227 292 35800ft 413kts
24-Apr-15 11:55 35.045792 -98.421218 292 35796ft 414kts
24-Apr-15 11:56 35.117862 -98.531108 292 35782ft 413kts
24-Apr-15 11:57 35.189736 -98.640980 292 35775ft 413kts
24-Apr-15 11:58 35.261557 -98.751816 292 35763ft 416kts
24-Apr-15 11:59 35.324200 -98.866076 268 35755ft 371kts
24-Apr-15 12:00 35.328508 -98.987016 259 35757ft 352kts
24-Apr-15 12:01 35.327586 -99.106476 258 35774ft 349kts
24-Apr-15 12:02 35.325197 -99.225368 257 35779ft 349kts
24-Apr-15 12:03 35.322438 -99.344307 257 35776ft 348kts
24-Apr-15 12:04 35.319473 -99.462830 257 35767ft 347kts
24-Apr-15 12:05 35.316181 -99.581082 256 35766ft 346kts
24-Apr-15 12:06 35.312701 -99.698856 256 35763ft 347kts
24-Apr-15 12:07 35.309049 -99.817108 256 35759ft 346kts
24-Apr-15 12:08 35.305280 -99.934982 256 35754ft 346kts
24-Apr-15 12:09 35.302045 -100.033352 256 35748ft 347kts
24-Apr-15 12:10 35.297354 -100.171591 256 35741ft 348kts
24-Apr-15 12:11 35.293892 -100.270886 256 35738ft 350kts
24-Apr-15 12:12 35.289635 -100.389699 255 35734ft 350kts
24-Apr-15 12:13 35.285251 -100.508864 255 35722ft 349kts
24-Apr-15 12:14 35.280738 -100.628307 255 35723ft 350kts
24-Apr-15 12:15 35.276105 -100.747841 255 35723ft 351kts
24-Apr-15 12:16 35.271340 -100.867783 255 35724ft 352kts
24-Apr-15 12:17 35.266450 -100.987791 255 35726ft 352kts
24-Apr-15 12:18 35.261430 -101.108080 255 35726ft 354kts
24-Apr-15 12:19 35.256278 -101.228688 255 35728ft 354kts
24-Apr-15 12:20 35.251209 -101.348808 255 35732ft 354kts
24-Apr-15 12:21 35.245866 -101.469485 255 35741ft 354kts
24-Apr-15 12:22 35.240224 -101.590116 255 35747ft 354kts
24-Apr-15 12:23 35.238203 -101.711905 264 35750ft 370kts
24-Apr-15 12:24 35.254362 -101.837397 265 35747ft 373kts
24-Apr-15 12:25 35.271021 -101.963205 265 35742ft 373kts
24-Apr-15 12:26 35.287696 -102.089263 265 35742ft 376kts
24-Apr-15 12:27 35.304787 -102.215369 265 35741ft 376kts
24-Apr-15 12:28 35.321709 -102.341853 265 35739ft 375kts
24-Apr-15 12:29 35.338452 -102.468493 265 35742ft 376kts
24-Apr-15 12:30 35.355054 -102.595436 265 35749ft 377kts
24-Apr-15 12:31 35.371520 -102.722533 265 35754ft 377kts
24-Apr-15 12:32 35.387881 -102.849957 265 35754ft 378kts
24-Apr-15 12:33 35.404162 -102.977873 265 35757ft 379kts
24-Apr-15 12:34 35.420336 -103.106081 265 35762ft 380kts
24-Apr-15 12:35 35.436439 -103.234851 266 35777ft 381kts
24-Apr-15 12:36 35.452408 -103.363712 266 35784ft 383kts
24-Apr-15 12:37 35.468352 -103.493513 266 35787ft 384kts
24-Apr-15 12:38 35.484207 -103.623797 266 35789ft 385kts
24-Apr-15 12:39 35.499979 -103.754395 266 35793ft 386kts
24-Apr-15 12:40 35.515622 -103.885244 266 35797ft 387kts
24-Apr-15 12:41 35.531133 -104.016513 266 35804ft 388kts
24-Apr-15 12:42 35.546586 -104.148523 266 35813ft 394kts
24-Apr-15 12:43 35.562090 -104.283639 267 35824ft 402kts
24-Apr-15 12:44 35.577612 -104.417583 266 35837ft 389kts
24-Apr-15 12:45 35.592636 -104.549575 266 35855ft 392kts
24-Apr-15 12:46 35.607739 -104.683040 267 35863ft 394kts
24-Apr-15 12:47 35.622860 -104.816862 267 35869ft 395kts
24-Apr-15 12:48 35.637640 -104.951271 267 35870ft 398kts
24-Apr-15 12:49 35.652378 -105.087049 269 35869ft 403kts
24-Apr-15 12:50 35.691331 -105.221439 284 35870ft 426kts
24-Apr-15 12:51 35.741615 -105.354305 285 35879ft 428kts
24-Apr-15 12:52 35.792287 -105.487793 286 35893ft 431kts
24-Apr-15 12:53 35.843434 -105.621515 286 35907ft 432kts
24-Apr-15 12:54 35.894557 -105.756026 286 35912ft 433kts
24-Apr-15 12:55 35.945561 -105.891035 287 35917ft 434kts
24-Apr-15 12:56 35.996610 -106.026337 287 35934ft 433kts
24-Apr-15 12:57 36.047323 -106.161765 286 35942ft 433kts
24-Apr-15 12:58 36.097823 -106.297718 286 35945ft 434kts
24-Apr-15 12:59 36.148241 -106.433797 287 35942ft 434kts
24-Apr-15 13:00 36.198412 -106.570015 286 35941ft 434kts
24-Apr-15 13:01 36.248483 -106.706758 287 35942ft 436kts
24-Apr-15 13:02 36.298878 -106.843841 287 35948ft 436kts
24-Apr-15 13:03 36.349052 -106.980566 287 35982ft 436kts
24-Apr-15 13:04 36.399054 -107.118349 288 35967ft 436kts
24-Apr-15 13:05 36.448783 -107.256452 288 35960ft 438kts
24-Apr-15 13:06 36.498552 -107.395034 288 35960ft 438kts
24-Apr-15 13:07 36.539898 -107.510832 288 35961ft 439kts
24-Apr-15 13:08 36.589448 -107.650198 289 35961ft 440kts
24-Apr-15 13:09 36.639480 -107.789651 289 35932ft 440kts
24-Apr-15 13:10 36.688987 -107.929548 289 35913ft 440kts
24-Apr-15 13:11 36.738040 -108.069346 290 35899ft 440kts
24-Apr-15 13:12 36.787538 -108.209291 290 35890ft 440kts
24-Apr-15 13:13 36.836948 -108.349477 290 35893ft 442kts
24-Apr-15 13:14 36.886144 -108.489917 291 35903ft 440kts
24-Apr-15 13:15 36.935667 -108.629967 291 35909ft 440kts
24-Apr-15 13:16 36.984392 -108.769097 291 35912ft 440kts
24-Apr-15 13:17 37.033171 -108.909271 291 35917ft 440kts
24-Apr-15 13:18 37.081830 -109.049940 291 35922ft 439kts
24-Apr-15 13:19 37.130372 -109.190939 291 35920ft 439kts
24-Apr-15 13:20 37.178761 -109.332167 292 35932ft 439kts
24-Apr-15 13:21 37.226882 -109.473267 292 36552ft 438kts
24-Apr-15 13:22 37.274683 -109.614084 291 37412ft 437kts
24-Apr-15 13:23 37.322290 -109.755013 291 37935ft 438kts
24-Apr-15 13:24 37.369430 -109.895234 291 37938ft 435kts
24-Apr-15 13:25 37.416516 -110.035992 291 37930ft 435kts
24-Apr-15 13:26 37.463209 -110.176200 291 37918ft 434kts
24-Apr-15 13:27 37.509827 -110.316872 291 37905ft 434kts
24-Apr-15 13:28 37.556236 -110.457592 291 37892ft 434kts
24-Apr-15 13:29 37.602450 -110.598405 291 37874ft 434kts
24-Apr-15 13:30 37.648452 -110.739257 291 37864ft 432kts
24-Apr-15 13:31 37.694185 -110.879975 291 37881ft 432kts
24-Apr-15 13:32 37.739675 -111.020628 291 37861ft 431kts
24-Apr-15 13:33 37.784858 -111.161018 291 37854ft 430kts
24-Apr-15 13:34 37.829810 -111.301379 291 37873ft 428kts
24-Apr-15 13:35 37.874348 -111.441135 291 37904ft 428kts
24-Apr-15 13:36 37.918837 -111.581425 291 37912ft 428kts
24-Apr-15 13:37 37.963122 -111.721768 291 37925ft 427kts
24-Apr-15 13:38 38.007124 -111.861887 291 37932ft 428kts
24-Apr-15 13:39 38.051487 -112.003866 290 37937ft 433kts
24-Apr-15 13:40 38.095316 -112.144956 291 37935ft 426kts
24-Apr-15 13:41 38.138821 -112.285588 291 37924ft 427kts
24-Apr-15 13:42 38.182139 -112.426352 291 37912ft 427kts
24-Apr-15 13:43 38.225273 -112.567242 291 37899ft 427kts
24-Apr-15 13:44 38.268568 -112.708516 291 37888ft 427kts
24-Apr-15 13:45 38.311373 -112.850029 290 37882ft 427kts
24-Apr-15 13:46 38.350821 -112.988341 282 37879ft 427kts
24-Apr-15 13:47 38.350077 -113.139645 265 37879ft 427kts
24-Apr-15 13:48 38.338986 -113.290721 265 37880ft 427kts
24-Apr-15 13:49 38.327340 -113.441178 265 37880ft 427kts
24-Apr-15 13:50 38.315974 -113.592015 265 37880ft 427kts
24-Apr-15 13:51 38.304150 -113.742453 265 37881ft 425kts
24-Apr-15 13:52 38.292055 -113.892653 265 37880ft 425kts
24-Apr-15 13:53 38.279937 -114.042797 265 37880ft 424kts
24-Apr-15 13:54 38.267606 -114.191187 265 37879ft 420kts
24-Apr-15 13:55 38.254892 -114.339564 265 37877ft 421kts
24-Apr-15 13:56 38.244298 -114.488053 267 37870ft 420kts
24-Apr-15 13:57 38.235315 -114.636536 266 37868ft 420kts
24-Apr-15 13:58 38.225994 -114.784771 266 37868ft 420kts
24-Apr-15 13:59 38.216995 -114.932538 266 37867ft 419kts
24-Apr-15 14:00 38.207750 -115.080607 266 37867ft 419kts
24-Apr-15 14:01 38.199789 -115.204050 266 37867ft 419kts
24-Apr-15 14:02 38.188394 -115.376416 266 37860ft 418kts
24-Apr-15 14:03 38.178407 -115.524101 266 37866ft 418kts
24-Apr-15 14:04 38.169934 -115.647221 266 37869ft 418kts
24-Apr-15 14:05 38.159605 -115.794785 265 37866ft 418kts
24-Apr-15 14:06 38.149097 -115.942223 265 37866ft 418kts
24-Apr-15 14:07 38.138433 -116.088543 266 37869ft 412kts
24-Apr-15 14:08 38.127799 -116.233113 266 37869ft 411kts
24-Apr-15 14:09 38.116949 -116.377851 266 37870ft 410kts
24-Apr-15 14:10 38.105916 -116.522532 266 37870ft 411kts
24-Apr-15 14:11 38.094727 -116.666860 266 37868ft 411kts
24-Apr-15 14:12 38.083325 -116.811595 266 37871ft 411kts
24-Apr-15 14:13 38.071757 -116.956161 265 37869ft 411kts
24-Apr-15 14:14 38.060017 -117.100624 265 37869ft 410kts
24-Apr-15 14:15 38.048105 -117.244986 265 37869ft 410kts
24-Apr-15 14:16 38.036207 -117.388629 265 37869ft 409kts
24-Apr-15 14:17 38.024105 -117.532484 265 37867ft 409kts
24-Apr-15 14:18 38.011538 -117.676328 265 37866ft 409kts
24-Apr-15 14:19 37.991774 -117.818630 255 37866ft 410kts
24-Apr-15 14:20 37.959006 -117.955843 256 37861ft 404kts
24-Apr-15 14:21 37.926231 -118.092180 256 37858ft 405kts
24-Apr-15 14:22 37.893413 -118.228934 256 37856ft 405kts
24-Apr-15 14:23 37.860619 -118.365635 256 37855ft 405kts
24-Apr-15 14:24 37.827784 -118.502096 255 37929ft 405kts
24-Apr-15 14:25 37.794386 -118.638245 255 37964ft 403kts
24-Apr-15 14:26 37.762675 -118.774244 262 37990ft 399kts
24-Apr-15 14:27 37.746757 -118.912589 264 38008ft 397kts
24-Apr-15 14:28 37.731304 -119.050958 264 38010ft 396kts
24-Apr-15 14:29 37.715771 -119.188846 264 38011ft 395kts
24-Apr-15 14:30 37.700656 -119.326372 263 38013ft 393kts
24-Apr-15 14:31 37.685426 -119.463277 263 38016ft 392kts
24-Apr-15 14:32 37.669776 -119.599742 263 38023ft 392kts
24-Apr-15 14:33 37.653900 -119.735265 263 38029ft 391kts
24-Apr-15 14:34 37.637913 -119.870569 262 36296ft 388kts
24-Apr-15 14:35 37.621571 -120.006590 262 33530ft 395kts
24-Apr-15 14:36 37.604639 -120.146068 262 30212ft 409kts
24-Apr-15 14:37 37.587777 -120.287718 262 27639ft 401kts
24-Apr-15 14:38 37.571119 -120.425159 262 25326ft 392kts
24-Apr-15 14:39 37.554370 -120.559402 262 23243ft 382kts
24-Apr-15 14:40 37.537947 -120.690248 263 21217ft 373kts
24-Apr-15 14:41 37.521716 -120.818122 263 19227ft 365kts
24-Apr-15 14:42 37.506165 -120.943249 264 17196ft 358kts
24-Apr-15 14:43 37.490452 -121.065920 263 15260ft 352kts
24-Apr-15 14:44 37.474718 -121.186728 263 13403ft 348kts
24-Apr-15 14:45 37.459159 -121.306038 263 12022ft 331kts
24-Apr-15 14:46 37.444955 -121.414139 263 11359ft 290kts
24-Apr-15 14:47 37.432357 -121.508581 263 10969ft 265kts
24-Apr-15 14:48 37.438840 -121.597160 284 10188ft 256kts
24-Apr-15 14:49 37.445051 -121.686163 264 8983ft 259kts
24-Apr-15 14:50 37.435863 -121.776475 265 7785ft 260kts
24-Apr-15 14:51 37.433575 -121.866601 283 6617ft 257kts
24-Apr-15 14:52 37.450468 -121.952666 286 5706ft 248kts
24-Apr-15 14:53 37.468458 -122.034905 286 4818ft 241kts
24-Apr-15 14:54 37.487351 -122.115209 293 3896ft 234kts
24-Apr-15 14:55 37.525201 -122.181091 305 2992ft 228kts
24-Apr-15 14:56 37.565444 -122.240245 296 2027ft 212kts
24-Apr-15 14:57 37.589916 -122.300966 293 993ft 166kts
24-Apr-15 14:58 37.608591 -122.345333 292 282ft 134kts
24-Apr-15 14:59 37.621264 -122.375694 287 20ft 19kts
24-Apr-15 15:00 37.620315 -122.378187 226 20ft 15kts
24-Apr-15 15:01 37.619563 -122.381415 284 20ft 10kts
24-Apr-15 15:02 37.619516 -122.383104 283 20ft 0kts

Navigation Log

Ident Type
1. KDFW Airport
2. LOWGN Fix
3. ADM Navaid
4. MRMAC Fix
5. CRUSR Fix
6. PNH Navaid
7. FTI Navaid
8. ESPAN Fix
9. RGINA Fix
10. RSK Navaid
11. MLF Navaid
12. ILC Navaid
13. OAL Navaid
14. YOSEM Fix
15. SNORA Fix
16. ZOMER Fix
17. FRIGG Fix
18. BONNS Fix
19. STEEV Fix
20. FAITH Fix
21. KSFO Airport